createdAt,value
2024-03-16T00:01:31.728Z,21.33
2024-03-16T00:03:58.885Z,14.27
2024-03-16T00:06:26.356Z,18.42
2024-03-16T00:08:53.698Z,17.88
2024-03-16T00:11:21.019Z,12.38
2024-03-16T00:13:50.158Z,14.00
2024-03-16T00:16:17.378Z,15.73
2024-03-16T00:18:44.567Z,17.52
2024-03-16T00:21:11.848Z,20.15
2024-03-16T00:23:38.997Z,13.73
2024-03-16T00:26:06.324Z,17.45
2024-03-16T00:28:34.323Z,21.48
2024-03-16T00:31:03.556Z,24.92
2024-03-16T00:35:59.276Z,8.80
2024-03-16T00:38:27.798Z,15.40
2024-03-16T00:40:55.277Z,14.75
2024-03-16T00:43:24.054Z,25.35
2024-03-16T00:45:51.360Z,15.35
2024-03-16T00:48:18.566Z,13.02
2024-03-16T00:50:45.763Z,28.13
2024-03-16T00:53:12.966Z,18.23
2024-03-16T00:55:40.840Z,17.50
2024-03-16T00:58:08.060Z,18.27
2024-03-16T01:00:35.230Z,9.68
2024-03-16T01:03:02.660Z,15.43
2024-03-16T01:05:30.109Z,30.67
2024-03-16T01:07:57.809Z,26.90
2024-03-16T01:10:25.252Z,20.13
2024-03-16T01:12:52.732Z,29.10
2024-03-16T01:15:21.925Z,30.30
2024-03-16T01:17:49.212Z,17.80
2024-03-16T01:20:16.879Z,19.75
2024-03-16T01:22:44.069Z,17.45
2024-03-16T01:25:11.426Z,21.50
2024-03-16T01:27:38.895Z,17.50
2024-03-16T01:30:06.428Z,15.63
2024-03-16T01:32:33.901Z,6.50
2024-03-16T01:35:01.160Z,7.40
2024-03-16T01:37:30.924Z,3.40
2024-03-16T01:39:58.087Z,9.02
2024-03-16T01:42:25.296Z,4.57
2024-03-16T01:45:03.844Z,9.35
2024-03-16T01:47:32.851Z,7.18
2024-03-16T01:50:00.409Z,9.05
2024-03-16T01:52:27.762Z,6.13
2024-03-16T01:54:55.006Z,7.53
2024-03-16T01:57:22.172Z,7.30
2024-03-16T01:59:50.261Z,4.78
2024-03-16T02:02:40.045Z,9.18
2024-03-16T02:05:08.509Z,8.93
2024-03-16T02:07:39.266Z,7.57
2024-03-16T02:10:10.096Z,7.68
2024-03-16T02:12:37.758Z,5.40
2024-03-16T02:15:05.251Z,11.23
2024-03-16T02:17:32.398Z,10.07
2024-03-16T02:19:59.549Z,4.65
2024-03-16T02:22:26.640Z,8.65
2024-03-16T02:24:53.920Z,3.67
2024-03-16T02:27:21.567Z,3.83
2024-03-16T02:29:48.951Z,9.55
2024-03-16T02:32:16.180Z,6.10
2024-03-16T02:34:43.455Z,3.78
2024-03-16T02:37:10.679Z,5.80
2024-03-16T02:39:38.020Z,5.80
2024-03-16T02:42:05.978Z,5.18
2024-03-16T02:44:33.301Z,5.82
2024-03-16T02:47:00.731Z,2.85
2024-03-16T02:49:28.473Z,4.60
2024-03-16T02:51:55.790Z,4.43
2024-03-16T02:54:23.091Z,2.97
2024-03-16T02:56:50.343Z,4.78
2024-03-16T02:59:17.574Z,3.33
2024-03-16T03:01:45.702Z,4.40
2024-03-16T03:04:13.195Z,4.40
2024-03-16T03:06:40.455Z,3.88
2024-03-16T03:09:08.674Z,3.72
2024-03-16T03:11:38.677Z,3.08
2024-03-16T03:14:07.629Z,2.75
2024-03-16T03:16:35.037Z,9.00
2024-03-16T03:19:02.403Z,2.50
2024-03-16T03:21:30.511Z,1.98
2024-03-16T03:23:59.313Z,3.08
2024-03-16T03:26:30.172Z,4.22
2024-03-16T03:28:57.931Z,4.38
2024-03-16T03:31:25.421Z,4.07
2024-03-16T03:33:53.979Z,2.53
2024-03-16T03:36:21.304Z,2.92
2024-03-16T03:38:49.100Z,3.08
2024-03-16T03:41:16.905Z,4.63
2024-03-16T03:43:48.362Z,3.75
2024-03-16T03:46:40.336Z,2.70
2024-03-16T03:49:16.030Z,3.88
2024-03-16T03:51:43.558Z,2.85
2024-03-16T03:54:11.007Z,7.13
2024-03-16T03:56:38.130Z,6.18
2024-03-16T03:59:05.312Z,4.28
2024-03-16T04:01:32.545Z,4.18
2024-03-16T04:04:00.203Z,6.95
2024-03-16T04:06:27.793Z,4.20
2024-03-16T04:08:55.071Z,6.82
2024-03-16T04:11:22.403Z,5.20
2024-03-16T04:13:49.800Z,2.97
2024-03-16T04:16:17.216Z,7.68
2024-03-16T04:18:44.692Z,5.63
2024-03-16T04:21:11.914Z,6.90
2024-03-16T04:23:39.179Z,3.72
2024-03-16T04:26:06.356Z,6.47
2024-03-16T04:28:33.555Z,4.10
2024-03-16T04:31:00.756Z,5.85
2024-03-16T04:33:28.557Z,2.47
2024-03-16T04:35:55.871Z,5.93
2024-03-16T04:38:23.412Z,6.55
2024-03-16T04:40:50.940Z,5.68
2024-03-16T04:43:18.598Z,5.13
2024-03-16T04:45:49.258Z,8.27
2024-03-16T04:48:16.595Z,7.07
2024-03-16T04:50:43.954Z,6.95
2024-03-16T04:53:12.582Z,7.13
2024-03-16T04:55:40.340Z,4.38
2024-03-16T04:58:09.176Z,7.82
2024-03-16T05:00:36.917Z,7.22
2024-03-16T05:03:06.029Z,6.50
2024-03-16T05:05:33.210Z,4.68
2024-03-16T05:08:00.378Z,2.30
2024-03-16T05:10:27.617Z,4.95
2024-03-16T05:12:54.945Z,6.05
2024-03-16T05:15:22.292Z,2.92
2024-03-16T05:17:49.763Z,8.23
2024-03-16T05:20:17.050Z,3.33
2024-03-16T05:22:44.262Z,5.95
2024-03-16T05:25:11.697Z,3.20
2024-03-16T05:27:39.626Z,4.88
2024-03-16T05:30:08.721Z,3.47
2024-03-16T05:32:36.336Z,3.38
2024-03-16T05:35:04.425Z,5.47
2024-03-16T05:37:31.997Z,3.30
2024-03-16T05:39:59.524Z,4.13
2024-03-16T05:42:26.796Z,11.70
2024-03-16T05:44:54.076Z,2.70
2024-03-16T05:47:23.366Z,3.70
2024-03-16T05:49:50.635Z,2.70
2024-03-16T05:52:17.943Z,4.55
2024-03-16T05:54:45.271Z,3.40
2024-03-16T05:57:12.515Z,5.15
2024-03-16T05:59:39.721Z,4.60
2024-03-16T06:02:07.079Z,4.00
2024-03-16T06:04:34.345Z,5.97
2024-03-16T06:07:01.689Z,3.58
2024-03-16T06:09:28.864Z,4.22
2024-03-16T06:11:56.178Z,3.58
2024-03-16T06:14:23.348Z,3.40
2024-03-16T06:16:50.726Z,5.80
2024-03-16T06:19:18.005Z,5.82
2024-03-16T06:21:46.446Z,6.90
2024-03-16T06:24:14.027Z,3.67
2024-03-16T06:26:42.319Z,3.38
2024-03-16T06:29:13.433Z,4.38
2024-03-16T06:31:42.336Z,7.93
2024-03-16T06:34:09.705Z,2.08
2024-03-16T06:36:37.654Z,1.27
2024-03-16T06:39:12.375Z,2.13
2024-03-16T06:41:39.856Z,4.43
2024-03-16T06:44:07.032Z,5.82
2024-03-16T06:46:34.176Z,2.95
2024-03-16T06:49:07.250Z,5.45
2024-03-16T06:51:35.417Z,6.25
2024-03-16T06:54:02.776Z,5.00
2024-03-16T06:56:30.394Z,8.50
2024-03-16T06:58:57.569Z,4.40
2024-03-16T07:01:25.855Z,3.45
2024-03-16T07:03:53.450Z,5.75
2024-03-16T07:06:20.883Z,4.55
2024-03-16T07:08:48.052Z,8.15
2024-03-16T07:11:15.165Z,5.95
2024-03-16T07:13:42.630Z,2.50
2024-03-16T07:16:14.810Z,2.85
2024-03-16T07:18:47.260Z,6.55
2024-03-16T07:21:20.548Z,8.25
2024-03-16T07:23:50.829Z,4.85
2024-03-16T07:26:18.094Z,4.53
2024-03-16T07:28:45.270Z,4.47
2024-03-16T07:31:14.051Z,4.57
2024-03-16T07:33:41.474Z,7.55
2024-03-16T07:36:09.610Z,4.35
2024-03-16T07:38:36.824Z,2.75
2024-03-16T07:41:05.068Z,2.78
2024-03-16T07:43:32.915Z,4.05
2024-03-16T07:46:00.149Z,6.38
2024-03-16T07:48:27.998Z,4.85
2024-03-16T07:51:01.488Z,7.05
2024-03-16T07:53:29.052Z,5.25
2024-03-16T07:55:58.741Z,2.85
2024-03-16T07:58:26.423Z,6.03
2024-03-16T08:00:53.653Z,3.05
2024-03-16T08:03:21.554Z,3.20
2024-03-16T08:05:48.815Z,3.45
2024-03-16T08:08:15.943Z,2.40
2024-03-16T08:10:46.632Z,4.45
2024-03-16T08:13:13.822Z,2.85
2024-03-16T08:15:41.156Z,5.28
2024-03-16T08:18:08.510Z,7.93
2024-03-16T08:20:35.682Z,7.00
2024-03-16T08:23:02.889Z,5.40
2024-03-16T08:25:31.755Z,9.60
2024-03-16T08:27:59.262Z,4.20
2024-03-16T08:30:26.861Z,5.95
2024-03-16T08:32:54.254Z,5.28
2024-03-16T08:35:21.577Z,3.58
2024-03-16T08:37:48.718Z,5.82
2024-03-16T08:40:17.229Z,3.33
2024-03-16T08:42:44.853Z,8.40
2024-03-16T08:45:12.254Z,4.57
2024-03-16T08:47:40.562Z,4.25
2024-03-16T08:50:09.212Z,3.72
2024-03-16T08:52:38.268Z,6.82
2024-03-16T08:55:06.614Z,4.40
2024-03-16T08:57:34.046Z,4.75
2024-03-16T09:00:01.320Z,5.75
2024-03-16T09:02:28.505Z,6.00
2024-03-16T09:04:58.551Z,5.43
2024-03-16T09:07:26.990Z,5.97
2024-03-16T09:09:54.398Z,4.20
2024-03-16T09:12:21.768Z,5.85
2024-03-16T09:14:48.945Z,4.07
2024-03-16T09:17:16.090Z,4.38
2024-03-16T09:19:43.277Z,4.78
2024-03-16T09:22:10.551Z,6.47
2024-03-16T09:24:37.797Z,4.78
2024-03-16T09:27:05.095Z,7.10
2024-03-16T09:29:32.542Z,7.57
2024-03-16T09:32:00.525Z,8.38
2024-03-16T09:34:27.737Z,14.18
2024-03-16T09:36:54.955Z,2.55
2024-03-16T09:39:27.757Z,6.50
2024-03-16T09:41:55.079Z,6.30
